Flight Track Log - Related Links

Times and Time Zones

All times are in EDT time to prevent confusion due to time zone crossing. See the N589H flight status page for this flight to view local times or setup timezone preferences in your user account.

Time Position Orientation Groundspeed Altitude Reporting Facility
EDT Latitude Longitude Course Direction KTS MPH feet Rate Location/Type
Wed 03:33:28 PM 43.0000 -81.1167 143° Southeast 110 127 1,300  Level Toronto Center
Wed 03:34:28 PM 42.9667 -81.0833 144° Southeast 170 196 3,200 1,650 Climbing Toronto Center
Wed 03:35:28 PM 42.9167 -81.0667 166° South 180 207 4,600 1,450 Climbing Toronto Center
Wed 03:36:28 PM 42.8667 -81.0833 194° South 200 230 6,100 1,850 Climbing Toronto Center
Wed 03:37:28 PM 42.8000 -81.0833 180° South 200 230 8,300 2,050 Climbing Toronto Center
Wed 03:38:28 PM 42.7500 -81.0833 180° South 200 230 10,200 1,250 Climbing Toronto Center
Wed 03:39:28 PM 42.6833 -81.0833 180° South 220 253 10,800 1,200 Climbing Toronto Center
Wed 03:40:28 PM 42.6167 -81.1000 190° South 230 265 12,600 1,900 Climbing Toronto Center
Wed 03:41:28 PM 42.5667 -81.1000 180° South 220 253 14,600 1,650 Climbing Toronto Center
Wed 03:42:28 PM 42.5000 -81.1000 180° South 220 253 15,900 1,400 Climbing Toronto Center
Wed 03:43:28 PM 42.4500 -81.1000 180° South 220 253 17,400 1,350 Climbing Toronto Center
Wed 03:44:28 PM 42.3667 -81.1000 180° South 230 265 18,600 1,400 Climbing Toronto Center
Wed 03:45:28 PM 42.3167 -81.1167 194° South 240 276 20,200 1,582 Climbing Toronto Center
Wed 03:45:59 PM 42.2956 -81.1297 205° Southwest 238 274 21,000 1,677 Climbing Cleveland Center
Wed 03:47:01 PM 42.2317 -81.1336 183° South 232 267 22,800 1,742 Climbing Cleveland Center
Wed 03:48:03 PM 42.1689 -81.1358 182° South 226 260 24,600 1,776 Climbing Cleveland Center
Wed 03:49:06 PM 42.0953 -81.1389 182° South 225 259 26,500 1,536 Climbing Cleveland Center
Wed 03:50:08 PM 42.0319 -81.1417 182° South 225 259 27,800 1,210 Climbing Cleveland Center
Wed 03:51:10 PM 41.9636 -81.1450 182° South 241 277 29,000 1,210 Climbing Cleveland Center
Wed 03:52:12 PM 41.8961 -81.1475 182° South 241 277 30,300 1,210 Climbing Cleveland Center
Wed 03:53:14 PM 41.8297 -81.1508 182° South 240 276 31,500 1,065 Climbing Cleveland Center
Wed 03:54:16 PM 41.7631 -81.1536 182° South 239 275 32,500 726 Climbing Cleveland Center
Wed 03:55:18 PM 41.6964 -81.1572 182° South 238 274 33,000 532 Climbing Cleveland Center
Wed 03:56:20 PM 41.6244 -81.1600 182° South 251 289 33,600 484 Climbing Cleveland Center
Wed 03:57:22 PM 41.5403 -81.1628 181° South 253 291 34,000 192 Climbing Cleveland Center
Wed 03:58:25 PM 41.4642 -81.1711 185° South 265 305 34,000  Level Cleveland Center
Wed 03:59:27 PM 41.3867 -81.1839 187° South 272 313 34,000  Level Cleveland Center
Wed 04:00:29 PM 41.3050 -81.1958 186° South 285 328 34,000 97 Level Cleveland Center
Wed 04:01:31 PM 41.2225 -81.2067 186° South 290 334 34,200 484 Climbing Cleveland Center
Wed 04:02:33 PM 41.1431 -81.2183 186° South 286 329 35,000 774 Climbing Cleveland Center
Wed 04:03:35 PM 41.0697 -81.2286 186° South 266 306 35,800 480 Climbing Cleveland Center
Wed 04:04:38 PM 40.9978 -81.2389 186° South 257 296 36,000 96 Climbing Cleveland Center
Wed 04:05:40 PM 40.9103 -81.2508 186° South 262 302 36,000  Level Cleveland Center
Wed 04:06:42 PM 40.8314 -81.2631 187° South 280 322 36,000  Level Cleveland Center
Wed 04:07:44 PM 40.7517 -81.2739 186° South 281 323 36,000  Level Cleveland Center
Wed 04:08:46 PM 40.6711 -81.2861 187° South 286 329 36,000  Level Cleveland Center
Wed 04:09:48 PM 40.5900 -81.2972 186° South 288 331 36,000  Level Cleveland Center
Wed 04:10:50 PM 40.4994 -81.3086 185° South 291 335 36,000  Level Cleveland Center
Wed 04:11:52 PM 40.4183 -81.3206 186° South 292 336 36,000  Level Cleveland Center
Wed 04:12:54 PM 40.3381 -81.3331 187° South 292 336 36,000  Level Cleveland Center
Wed 04:13:56 PM 40.2569 -81.3431 185° South 293 337 36,000  Level Cleveland Center
Wed 04:14:59 PM 40.1747 -81.3544 186° South 293 337 36,000  Level Cleveland Center
Wed 04:16:01 PM 40.0794 -81.3686 186° South 293 337 36,000  Level Cleveland Center
Wed 04:17:03 PM 39.9983 -81.3794 186° South 293 337 36,000  Level Cleveland Center
Wed 04:18:05 PM 39.9181 -81.3906 186° South 292 336 36,000  Level Cleveland Center
Wed 04:19:07 PM 39.8447 -81.4011 186° South 292 336 36,000  Level Cleveland Center
Wed 04:20:09 PM 39.7592 -81.4131 186° South 290 334 36,000  Level Cleveland Center
Wed 04:21:11 PM 39.6803 -81.4236 186° South 288 331 36,000  Level Cleveland Center
Wed 04:22:13 PM 39.5872 -81.4369 186° South 284 327 36,000  Level Cleveland Center
Wed 04:23:15 PM 39.5144 -81.4478 187° South 284 327 36,000  Level Cleveland Center
Wed 04:24:17 PM 39.4358 -81.4583 186° South 284 327 36,000  Level Cleveland Center
Wed 04:25:20 PM 39.3578 -81.4683 186° South 284 327 36,000  Level Cleveland Center
Wed 04:26:22 PM 39.2636 -81.4822 187° South 284 327 36,000  Level Cleveland Center
Wed 04:27:24 PM 39.1842 -81.4922 186° South 285 328 36,000  Level Cleveland Center
Wed 04:28:26 PM 39.1050 -81.5025 186° South 285 328 36,000  Level Cleveland Center
Wed 04:29:28 PM 39.0247 -81.5139 186° South 286 329 36,000  Level Cleveland Center
Wed 04:30:30 PM 38.9444 -81.5247 186° South 288 331 36,000  Level Cleveland Center
Wed 04:31:32 PM 38.8642 -81.5358 186° South 288 331 36,000  Level Cleveland Center
Wed 04:33:00 PM 38.7303 -81.5531 186° South 291 335 36,000  Level Indianapolis Center
Wed 04:34:02 PM 38.6503 -81.5672 188° South 291 335 36,000  Level Indianapolis Center
Wed 04:35:04 PM 38.5686 -81.5772 185° South 291 335 36,000  Level Indianapolis Center
Wed 04:36:06 PM 38.4800 -81.5878 185° South 291 335 36,000  Level Indianapolis Center
Wed 04:37:08 PM 38.3994 -81.5989 186° South 291 335 36,000  Level Indianapolis Center
Wed 04:38:10 PM 38.3178 -81.6097 186° South 292 336 36,000  Level Indianapolis Center
Wed 04:39:12 PM 38.2364 -81.6208 186° South 292 336 36,000  Level Indianapolis Center
Wed 04:40:15 PM 38.1556 -81.6319 186° South 292 336 36,000  Level Indianapolis Center
Wed 04:41:17 PM 38.0742 -81.6419 186° South 292 336 36,000  Level Indianapolis Center
Wed 04:42:19 PM 37.9781 -81.6556 186° South 291 335 36,000  Level Indianapolis Center
Wed 04:43:21 PM 37.8989 -81.6653 186° South 289 333 36,000  Level Indianapolis Center
Wed 04:44:23 PM 37.8128 -81.6731 184° South 289 333 36,000  Level Indianapolis Center
Wed 04:45:58 PM 37.6911 -81.6894 186° South 290 334 36,000  Level Atlanta Center
Wed 04:46:58 PM 37.6122 -81.6997 186° South 290 334 36,000  Level Atlanta Center
Wed 04:47:29 PM 37.5694 -81.6997 180° South 293 337 36,000  Level Indianapolis Center
Wed 04:48:31 PM 37.4892 -81.7089 185° South 290 334 36,000  Level Indianapolis Center
Wed 04:49:33 PM 37.3950 -81.7200 185° South 290 334 36,000  Level Indianapolis Center
Wed 04:50:35 PM 37.3142 -81.7297 185° South 290 334 36,000  Level Indianapolis Center
Wed 04:51:38 PM 37.2336 -81.7392 185° South 290 334 36,000  Level Indianapolis Center
Wed 04:52:40 PM 37.1539 -81.7486 185° South 290 334 36,000  Level Indianapolis Center
Wed 04:53:42 PM 37.0742 -81.7581 185° South 290 334 36,000  Level Indianapolis Center
Wed 04:54:44 PM 36.9950 -81.7664 185° South 289 333 36,000  Level Indianapolis Center
Wed 04:55:46 PM 36.9036 -81.7778 186° South 286 329 36,000  Level Indianapolis Center
Wed 04:56:48 PM 36.8244 -81.7856 184° South 286 329 36,000  Level Indianapolis Center
Wed 04:57:50 PM 36.7450 -81.7947 185° South 285 328 36,000  Level Indianapolis Center
Wed 04:58:52 PM 36.6639 -81.8031 185° South 286 329 36,000  Level Indianapolis Center
Wed 04:59:58 PM 36.5678 -81.8158 186° South 290 334 36,000  Level Atlanta Center
Wed 05:00:58 PM 36.4972 -81.8231 185° South 290 334 36,000  Level Atlanta Center
Wed 05:01:58 PM 36.4158 -81.8303 184° South 290 334 36,000  Level Atlanta Center
Wed 05:02:58 PM 36.3328 -81.8403 186° South 295 339 36,000  Level Atlanta Center
Wed 05:03:58 PM 36.2536 -81.8475 184° South 295 339 36,000  Level Atlanta Center
Wed 05:04:58 PM 36.1725 -81.8603 187° South 289 333 36,000  Level Atlanta Center
Wed 05:05:58 PM 36.0933 -81.8675 184° South 295 339 36,000  Level Atlanta Center
Wed 05:06:58 PM 36.0119 -81.8747 184° South 290 334 36,000  Level Atlanta Center
Wed 05:07:58 PM 35.9289 -81.8872 187° South 296 341 36,000  Level Atlanta Center
Wed 05:08:58 PM 35.8436 -81.8972 185° South 296 341 36,000  Level Atlanta Center
Wed 05:09:58 PM 35.7603 -81.9069 185° South 301 346 36,000  Level Atlanta Center
Wed 05:10:58 PM 35.6728 -81.9169 185° South 307 353 36,000  Level Atlanta Center
Wed 05:11:58 PM 35.5917 -81.9267 186° South 312 359 36,000  Level Atlanta Center
Wed 05:12:58 PM 35.5061 -81.9339 184° South 312 359 36,000  Level Atlanta Center
Wed 05:13:58 PM 35.4208 -81.9414 184° South 312 359 36,000  Level Atlanta Center
Wed 05:14:58 PM 35.3333 -81.9536 187° South 312 359 36,000  Level Atlanta Center
Wed 05:15:58 PM 35.2481 -81.9636 185° South 312 359 36,000  Level Atlanta Center
Wed 05:16:58 PM 35.1625 -81.9733 185° South 312 359 36,000  Level Atlanta Center
Wed 05:17:58 PM 35.0792 -81.9803 184° South 312 359 36,000  Level Atlanta Center
Wed 05:18:58 PM 34.9917 -81.9903 185° South 312 359 36,000  Level Atlanta Center
Wed 05:19:58 PM 34.8958 -81.9975 184° South 312 359 36,000  Level Atlanta Center
Wed 05:20:58 PM 34.8106 -82.0072 185° South 312 359 36,000  Level Atlanta Center
Wed 05:21:58 PM 34.7231 -82.0169 185° South 312 359 36,000  Level Atlanta Center
Wed 05:22:58 PM 34.6375 -82.0242 184° South 312 359 36,000  Level Atlanta Center
Wed 05:23:58 PM 34.5500 -82.0339 185° South 312 359 36,000  Level Atlanta Center
Wed 05:24:58 PM 34.4647 -82.0433 185° South 312 359 36,000  Level Atlanta Center
Wed 05:25:58 PM 34.3772 -82.0506 184° South 312 359 36,000  Level Atlanta Center
Wed 05:26:58 PM 34.2897 -82.0600 185° South 312 359 36,000  Level Atlanta Center
Wed 05:27:58 PM 34.2000 -82.0697 185° South 317 365 36,000  Level Atlanta Center
Wed 05:28:58 PM 34.1147 -82.0792 185° South 317 365 36,000  Level Atlanta Center
Wed 05:29:58 PM 34.0250 -82.0889 185° South 317 365 36,000  Level Atlanta Center
Wed 05:30:58 PM 33.9375 -82.0983 185° South 317 365 36,000  Level Atlanta Center
Wed 05:31:58 PM 33.8481 -82.1078 185° South 317 365 36,000  Level Atlanta Center
Wed 05:32:58 PM 33.7603 -82.1147 184° South 317 365 36,000  Level Atlanta Center
Wed 05:33:58 PM 33.6686 -82.1244 185° South 322 371 36,000  Level Atlanta Center
Wed 05:34:58 PM 33.5792 -82.1364 186° South 328 377 36,000  Level Atlanta Center
Wed 05:35:58 PM 33.4875 -82.1433 184° South 328 377 36,000  Level Atlanta Center
Wed 05:36:58 PM 33.3958 -82.1528 185° South 328 377 36,000  Level Atlanta Center
Wed 05:37:58 PM 33.3061 -82.1622 185° South 328 377 36,000  Level Atlanta Center
Wed 05:38:58 PM 33.2144 -82.1717 185° South 328 377 36,000  Level Atlanta Center
Wed 05:39:58 PM 33.1228 -82.1811 185° South 328 377 36,000  Level Atlanta Center
Wed 05:40:58 PM 33.0289 -82.1931 186° South 334 384 36,000  Level Atlanta Center
Wed 05:41:58 PM 32.9372 -82.2022 185° South 334 384 36,000  Level Atlanta Center
Wed 05:44:02 PM 32.7514 -82.2208 185° South 338 389 36,000  Level Jacksonville Center
Wed 05:45:02 PM 32.6594 -82.2289 184° South 338 389 36,000  Level Jacksonville Center
Wed 05:46:02 PM 32.5656 -82.2394 185° South 344 396 36,000  Level Jacksonville Center
Wed 05:47:02 PM 32.4697 -82.2500 185° South 349 402 36,000  Level Jacksonville Center
Wed 05:48:02 PM 32.3675 -82.2606 185° South 338 389 36,000  Level Jacksonville Center
Wed 05:49:02 PM 32.2736 -82.2708 185° South 338 389 36,000  Level Jacksonville Center
Wed 05:50:02 PM 32.1881 -82.2789 185° South 344 396 36,000  Level Jacksonville Center
Wed 05:51:02 PM 32.0836 -82.2894 185° South 350 403 36,000  Level Jacksonville Center
Wed 05:52:02 PM 31.9878 -82.2972 184° South 345 397 36,000  Level Jacksonville Center
Wed 05:53:02 PM 31.9064 -82.3078 186° South 345 397 36,000  Level Jacksonville Center
Wed 05:54:02 PM 31.7997 -82.3156 184° South 350 403 36,000  Level Jacksonville Center
Wed 05:55:02 PM 31.7081 -82.3261 186° South 342 394 36,000  Level Jacksonville Center
Wed 05:56:02 PM 31.6225 -82.3314 183° South 342 394 36,000  Level Jacksonville Center
Wed 05:57:02 PM 31.5347 -82.3417 186° South 336 387 36,000  Level Jacksonville Center
Wed 05:58:02 PM 31.4389 -82.3519 185° South 336 387 36,000  Level Jacksonville Center
Wed 05:59:02 PM 31.3386 -82.3647 186° South 331 381 36,000  Level Jacksonville Center
Wed 06:00:02 PM 31.2447 -82.3750 185° South 331 381 36,000  Level Jacksonville Center
Wed 06:01:02 PM 31.1528 -82.3828 184° South 331 381 36,000  Level Jacksonville Center
Wed 06:02:02 PM 31.0631 -82.3906 184° South 331 381 36,000  Level Jacksonville Center
Wed 06:03:02 PM 30.9714 -82.4008 185° South 331 381 36,000  Level Jacksonville Center
Wed 06:04:02 PM 30.8817 -82.4108 185° South 331 381 36,000  Level Jacksonville Center
Wed 06:05:02 PM 30.7875 -82.4186 184° South 331 381 36,000  Level Jacksonville Center
Wed 06:06:02 PM 30.6936 -82.4142 178° South 331 381 36,000 -50 Level Jacksonville Center
Wed 06:07:02 PM 30.5997 -82.4050 175° South 336 387 35,900 -350 Descending Jacksonville Center
Wed 06:08:02 PM 30.5014 -82.4008 178° South 342 394 35,300 -600 Descending Jacksonville Center
Wed 06:09:02 PM 30.4011 -82.3917 175° South 355 409 34,700 -1,000 Descending Jacksonville Center
Wed 06:10:02 PM 30.3011 -82.3850 177° South 360 414 33,300 -1,400 Descending Jacksonville Center
Wed 06:11:02 PM 30.1986 -82.3783 177° South 365 420 31,900 -1,400 Descending Jacksonville Center
Wed 06:12:02 PM 30.0983 -82.3717 177° South 365 420 30,500 -1,350 Descending Jacksonville Center
Wed 06:13:02 PM 30.0086 -82.3625 175° South 365 420 29,200 -1,350 Descending Jacksonville Center
Wed 06:14:02 PM 29.9064 -82.3558 177° South 365 420 27,800 -1,700 Descending Jacksonville Center
Wed 06:15:02 PM 29.8019 -82.3492 177° South 365 420 25,800 -8,400 Descending Jacksonville Center
Wed 06:16:02 PM 29.6994 -82.3425 177° South 365 420 11,000 -1,850 Descending Jacksonville Center
Wed 06:17:02 PM 29.6036 -82.3361 177° South 365 420 22,100 4,700 Climbing Jacksonville Center
Wed 06:18:02 PM 29.5117 -82.3294 176° South 354 407 20,400 -1,650 Descending Jacksonville Center
Wed 06:19:02 PM 29.4219 -82.3228 176° South 336 387 18,800 -1,300 Descending Jacksonville Center
Wed 06:20:02 PM 29.3319 -82.3161 176° South 331 381 17,800 -1,100 Descending Jacksonville Center
Wed 06:21:02 PM 29.2422 -82.3119 178° South 331 381 16,600 -1,200 Descending Jacksonville Center
Wed 06:22:02 PM 29.1567 -82.3053 176° South 325 374 15,400 -1,150 Descending Jacksonville Center
Wed 06:23:02 PM 29.0731 -82.2986 176° South 314 361 14,300 -1,150 Descending Jacksonville Center
Wed 06:24:02 PM 28.9894 -82.2919 176° South 308 354 13,100 -1,250 Descending Jacksonville Center
Wed 06:25:02 PM 28.8956 -82.2903 179° South 313 360 11,800 -764 Descending Jacksonville Center
Wed 06:26:47 PM 28.7500 -82.2833 178° South 288 331 11,000 -302 Descending Tampa TRACON
Wed 06:27:41 PM 28.6833 -82.2667 168° South 284 327 11,000 -50 Level Tampa TRACON
Wed 06:28:47 PM 28.6000 -82.2833 190° South 278 320 10,900 -227 Descending Tampa TRACON
Wed 06:29:53 PM 28.5667 -82.3667 246° West 269 310 10,500 -619 Descending Tampa TRACON
Wed 06:30:53 PM 28.5333 -82.4500 246° West 281 323 9,600 -950 Descending Tampa TRACON
Wed 06:31:53 PM 28.4833 -82.5167 230° Southwest 280 322 8,600 -1,000 Descending Tampa TRACON
Wed 06:32:53 PM 28.4333 -82.5833 230° Southwest 281 323 7,600 -1,000 Descending Tampa TRACON
Wed 06:33:47 PM 28.3833 -82.6333 221° Southwest 283 326 6,700 -1,000 Descending Tampa TRACON
Wed 06:34:53 PM 28.3167 -82.7000 221° Southwest 280 322 5,600 -1,050 Descending Tampa TRACON
Wed 06:35:47 PM 28.2667 -82.7500 221° Southwest 275 316 4,600 -800 Descending Tampa TRACON
Wed 06:36:53 PM 28.1833 -82.7667 190° South 245 282 4,000 -474 Descending Tampa TRACON
Wed 06:37:41 PM 28.1333 -82.7833 196° South 208 239 3,700 -440 Descending Tampa TRACON
Wed 06:38:42 PM 28.0833 -82.7667 164° South 211 243 3,200 -496 Descending Tampa TRACON
Wed 06:39:42 PM 28.0167 -82.7667 180° South 217 250 2,700 -336 Descending Tampa TRACON
Wed 06:40:47 PM 27.9500 -82.7667 180° South 209 241 2,500 -286 Descending Tampa TRACON
Wed 06:41:48 PM 27.9000 -82.7667 180° South 197 227 2,100 -496 Descending Tampa TRACON
Wed 06:42:48 PM 27.8500 -82.7667 180° South 189 217 1,500 -350 Descending Tampa TRACON
Wed 06:43:48 PM 27.8333 -82.7167 111° Southeast 144 166 1,400 -400 Descending Tampa TRACON
Wed 06:44:48 PM 27.8667 -82.6833 41° Northeast 136 157 700 -700 Descending Tampa TRACON
Wed 06:46:00 PM 27.9000 -82.6833 North  Level FlightAware Approximate

Login

Don't have an account? Register now (free) for customized features, flight alerts, and more!